createdAt,value
2022-12-22T00:01:02.604Z,8.70
2022-12-22T00:06:07.134Z,8.62
2022-12-22T00:11:14.317Z,8.73
2022-12-22T00:16:18.278Z,8.74
2022-12-22T00:21:26.527Z,8.76
2022-12-22T00:26:32.472Z,8.65
2022-12-22T00:31:37.728Z,8.78
2022-12-22T00:36:41.355Z,8.75
2022-12-22T00:41:47.602Z,8.75
2022-12-22T00:46:53.072Z,8.81
2022-12-22T00:51:59.955Z,8.81
2022-12-22T00:57:06.195Z,8.79
2022-12-22T01:02:11.667Z,8.84
2022-12-22T01:07:15.396Z,8.83
2022-12-22T01:12:32.022Z,8.88
2022-12-22T01:17:35.526Z,8.89
2022-12-22T01:22:38.335Z,8.89
2022-12-22T01:27:44.177Z,8.91
2022-12-22T01:32:47.906Z,8.91
2022-12-22T01:37:50.640Z,8.92
2022-12-22T01:42:59.018Z,8.88
2022-12-22T01:48:02.380Z,8.92
2022-12-22T01:53:05.681Z,8.96
2022-12-22T01:58:14.601Z,8.93
2022-12-22T02:03:19.401Z,8.94
2022-12-22T02:08:37.504Z,8.97
2022-12-22T02:13:54.014Z,9.00
2022-12-22T02:19:03.688Z,9.00
2022-12-22T02:24:30.606Z,8.99
2022-12-22T02:29:42.269Z,8.97
2022-12-22T02:34:47.418Z,8.96
2022-12-22T02:40:04.518Z,9.00
2022-12-22T02:45:23.131Z,8.93
2022-12-22T02:50:36.288Z,8.99
2022-12-22T02:55:46.246Z,8.94
2022-12-22T03:00:54.853Z,8.94
2022-12-22T03:05:59.262Z,8.92
2022-12-22T03:11:02.926Z,8.92
2022-12-22T03:16:09.670Z,8.87
2022-12-22T03:21:13.952Z,8.87
2022-12-22T03:26:05.600Z,8.88
2022-12-22T03:31:02.182Z,8.89
2022-12-22T03:35:53.438Z,8.85
2022-12-22T03:40:45.459Z,8.89
2022-12-22T03:45:48.482Z,8.86
2022-12-22T03:50:41.355Z,8.76
2022-12-22T03:55:31.578Z,8.82
2022-12-22T04:00:27.598Z,8.84
2022-12-22T04:05:22.948Z,8.79
2022-12-22T04:10:31.688Z,8.84
2022-12-22T04:15:24.469Z,8.84
2022-12-22T04:20:16.384Z,8.81
2022-12-22T04:25:08.377Z,8.83
2022-12-22T04:30:03.591Z,8.84
2022-12-22T04:34:54.021Z,8.75
2022-12-22T04:39:46.290Z,8.74
2022-12-22T04:44:36.161Z,8.83
2022-12-22T04:49:31.553Z,8.93
2022-12-22T04:54:25.740Z,8.92
2022-12-22T04:59:18.180Z,8.90
2022-12-22T05:04:09.381Z,8.93
2022-12-22T05:09:03.352Z,8.92
2022-12-22T05:13:54.474Z,8.92
2022-12-22T05:18:47.163Z,8.90
2022-12-22T05:23:38.591Z,8.87
2022-12-22T05:28:32.710Z,8.85
2022-12-22T05:33:25.564Z,8.83
2022-12-22T05:38:16.673Z,8.76
2022-12-22T05:43:07.936Z,8.83
2022-12-22T05:48:03.499Z,8.78
2022-12-22T05:52:53.911Z,8.72
2022-12-22T05:57:44.580Z,8.74
2022-12-22T06:02:36.022Z,8.73
2022-12-22T06:07:35.414Z,8.57
2022-12-22T06:12:26.999Z,8.60
2022-12-22T06:17:22.225Z,8.54
2022-12-22T06:22:13.571Z,8.46
2022-12-22T06:27:20.511Z,8.40
2022-12-22T06:32:13.214Z,8.22
2022-12-22T06:37:03.985Z,8.23
2022-12-22T06:42:10.711Z,8.11
2022-12-22T06:47:10.553Z,7.86
2022-12-22T06:52:02.107Z,8.03
2022-12-22T06:56:56.089Z,7.99
2022-12-22T07:01:47.941Z,7.99
2022-12-22T07:06:49.268Z,7.92
2022-12-22T07:11:39.345Z,7.79
2022-12-22T07:16:33.332Z,7.78
2022-12-22T07:21:28.662Z,7.79
2022-12-22T07:26:57.601Z,7.75
2022-12-22T07:31:50.308Z,7.68
2022-12-22T07:36:42.904Z,7.65
2022-12-22T07:41:50.876Z,7.56
2022-12-22T07:46:43.660Z,7.60
2022-12-22T07:51:41.392Z,7.57
2022-12-22T07:56:32.420Z,7.46
2022-12-22T08:01:26.618Z,7.49
2022-12-22T08:06:18.362Z,7.49
2022-12-22T08:11:09.364Z,7.40
2022-12-22T08:16:08.861Z,7.43
2022-12-22T08:21:01.609Z,7.43
2022-12-22T08:25:56.349Z,7.34
2022-12-22T08:30:51.174Z,7.19
2022-12-22T08:35:46.811Z,7.34
2022-12-22T08:40:41.143Z,7.39
2022-12-22T08:45:33.229Z,7.36
2022-12-22T08:50:25.016Z,7.35
2022-12-22T08:55:16.238Z,7.40
2022-12-22T09:00:16.426Z,7.38
2022-12-22T09:05:09.208Z,7.43
2022-12-22T09:10:00.551Z,7.38
2022-12-22T09:14:50.770Z,7.43
2022-12-22T09:19:44.772Z,7.45
2022-12-22T09:24:36.475Z,7.44
2022-12-22T09:29:31.301Z,7.50
2022-12-22T09:34:25.011Z,7.51
2022-12-22T09:39:23.653Z,7.51
2022-12-22T09:44:28.016Z,7.59
2022-12-22T09:49:23.244Z,7.67
2022-12-22T09:54:17.729Z,8.12
2022-12-22T09:59:16.061Z,8.66
2022-12-22T10:04:18.555Z,9.23
2022-12-22T10:09:48.785Z,9.67
2022-12-22T10:14:40.242Z,10.00
2022-12-22T10:19:30.751Z,10.12
2022-12-22T10:24:39.476Z,10.16
2022-12-22T10:29:33.565Z,10.18
2022-12-22T10:34:28.124Z,10.16
2022-12-22T10:39:34.167Z,9.97
2022-12-22T10:44:28.942Z,9.88
2022-12-22T10:49:23.317Z,9.73
2022-12-22T10:54:34.733Z,9.63
2022-12-22T10:59:26.735Z,9.32
2022-12-22T11:04:26.247Z,9.17
2022-12-22T11:09:35.008Z,8.85
2022-12-22T11:14:38.398Z,8.55
2022-12-22T11:19:55.109Z,8.21
2022-12-22T11:24:59.545Z,7.88
2022-12-22T11:30:09.480Z,7.69
2022-12-22T11:35:19.692Z,7.62
2022-12-22T11:40:24.562Z,7.52
2022-12-22T11:45:42.933Z,7.34
2022-12-22T11:50:59.856Z,7.29
2022-12-22T11:56:10.436Z,7.32
2022-12-22T12:01:22.410Z,7.20
2022-12-22T12:06:53.349Z,7.41
2022-12-22T12:11:54.233Z,7.38
2022-12-22T12:16:55.165Z,7.50
2022-12-22T12:21:53.373Z,7.56
2022-12-22T12:26:53.445Z,7.65
2022-12-22T12:31:58.377Z,7.76
2022-12-22T12:36:55.357Z,7.85
2022-12-22T12:41:55.219Z,7.91
2022-12-22T12:47:29.145Z,7.99
2022-12-22T12:52:21.233Z,8.09
2022-12-22T12:57:30.406Z,8.08
2022-12-22T13:02:45.422Z,8.16
2022-12-22T13:08:05.764Z,8.18
2022-12-22T13:12:59.279Z,8.19
2022-12-22T13:17:59.463Z,8.20
2022-12-22T13:22:59.625Z,8.26
2022-12-22T13:27:52.675Z,8.34
2022-12-22T13:32:53.974Z,8.49
2022-12-22T13:37:51.765Z,8.47
2022-12-22T13:42:46.279Z,8.70
2022-12-22T13:47:37.239Z,8.72
2022-12-22T13:52:34.387Z,8.78
2022-12-22T13:57:28.901Z,8.77
2022-12-22T14:02:26.858Z,8.72
2022-12-22T14:07:20.240Z,8.71
2022-12-22T14:12:21.162Z,8.68
2022-12-22T14:17:25.900Z,8.70
2022-12-22T14:22:22.270Z,8.72
2022-12-22T14:27:25.599Z,8.66
2022-12-22T14:32:38.217Z,8.63
2022-12-22T14:37:32.762Z,8.59
2022-12-22T14:42:27.756Z,8.51
2022-12-22T14:47:28.159Z,8.40
2022-12-22T14:52:28.823Z,8.31
2022-12-22T14:57:47.353Z,8.40
2022-12-22T15:02:44.312Z,8.38
2022-12-22T15:08:05.240Z,8.37
2022-12-22T15:13:07.447Z,8.34
2022-12-22T15:18:04.508Z,8.32
2022-12-22T15:23:03.584Z,8.30
2022-12-22T15:27:56.208Z,8.30
2022-12-22T15:32:50.373Z,8.24
2022-12-22T15:37:43.003Z,8.20
2022-12-22T15:42:36.157Z,8.23
2022-12-22T15:47:29.433Z,7.96
2022-12-22T15:52:28.152Z,8.14
2022-12-22T15:57:23.321Z,8.27
2022-12-22T16:02:19.115Z,8.23
2022-12-22T16:07:10.534Z,8.24
2022-12-22T16:12:03.996Z,8.23
2022-12-22T16:16:58.078Z,8.31
2022-12-22T16:21:55.531Z,8.27
2022-12-22T16:26:48.603Z,8.33
2022-12-22T16:31:42.530Z,8.33
2022-12-22T16:36:34.440Z,8.34
2022-12-22T16:41:28.154Z,8.34
2022-12-22T16:46:30.041Z,8.38
2022-12-22T16:51:27.759Z,8.23
2022-12-22T16:56:31.358Z,8.45
2022-12-22T17:01:34.836Z,8.47
2022-12-22T17:06:29.767Z,8.50
2022-12-22T17:11:29.049Z,8.52
2022-12-22T17:16:35.868Z,8.57
2022-12-22T17:21:30.099Z,8.26
2022-12-22T17:26:24.020Z,8.60
2022-12-22T17:31:19.134Z,8.56
2022-12-22T17:36:18.332Z,8.68
2022-12-22T17:41:27.864Z,8.74
2022-12-22T17:46:25.594Z,8.79
2022-12-22T17:51:32.656Z,8.88
2022-12-22T17:56:30.926Z,9.03
2022-12-22T18:01:28.293Z,9.13
2022-12-22T18:06:25.358Z,9.20
2022-12-22T18:11:21.154Z,9.00
2022-12-22T18:16:21.262Z,9.34
2022-12-22T18:21:17.747Z,9.35
2022-12-22T18:26:10.063Z,9.47
2022-12-22T18:31:03.567Z,9.55
2022-12-22T18:36:32.070Z,9.54
2022-12-22T18:41:40.546Z,9.63
2022-12-22T18:46:34.656Z,9.28
2022-12-22T18:51:31.426Z,9.34
2022-12-22T18:56:25.931Z,9.60
2022-12-22T19:01:24.702Z,9.61
2022-12-22T19:06:19.541Z,9.75
2022-12-22T19:11:16.473Z,9.76
2022-12-22T19:16:20.232Z,9.73
2022-12-22T19:21:15.232Z,9.67
2022-12-22T19:26:09.992Z,9.79
2022-12-22T19:31:06.665Z,9.68
2022-12-22T19:36:01.613Z,9.74
2022-12-22T19:40:55.557Z,9.71
2022-12-22T19:45:50.355Z,9.72
2022-12-22T19:50:46.458Z,9.66
2022-12-22T19:55:44.119Z,9.71
2022-12-22T20:00:35.060Z,9.68
2022-12-22T20:05:33.665Z,9.68
2022-12-22T20:10:30.509Z,9.61
2022-12-22T20:15:27.554Z,9.58
2022-12-22T20:20:20.808Z,9.52
2022-12-22T20:25:19.289Z,9.64
2022-12-22T20:30:27.033Z,9.65
2022-12-22T20:35:18.773Z,9.60
2022-12-22T20:40:28.404Z,9.62
2022-12-22T20:45:24.575Z,9.62
2022-12-22T20:50:29.751Z,9.62
2022-12-22T20:55:24.912Z,9.58
2022-12-22T21:00:28.523Z,9.64
2022-12-22T21:05:20.115Z,9.62
2022-12-22T21:10:22.780Z,9.59
2022-12-22T21:15:24.168Z,9.64
2022-12-22T21:20:21.742Z,9.65
2022-12-22T21:25:19.740Z,9.57
2022-12-22T21:30:20.315Z,9.62
2022-12-22T21:35:17.474Z,9.64
2022-12-22T21:40:09.895Z,9.64
2022-12-22T21:45:03.294Z,9.57
2022-12-22T21:49:57.972Z,9.61
2022-12-22T21:54:55.556Z,9.62
2022-12-22T21:59:50.502Z,9.64
2022-12-22T22:04:51.786Z,9.63
2022-12-22T22:09:45.573Z,9.63
2022-12-22T22:14:39.756Z,9.61
2022-12-22T22:19:30.913Z,9.62
2022-12-22T22:24:22.953Z,9.59
2022-12-22T22:29:17.952Z,9.66
2022-12-22T22:34:12.031Z,9.58
2022-12-22T22:39:06.828Z,9.65
2022-12-22T22:44:00.422Z,9.67
2022-12-22T22:48:52.212Z,9.64
2022-12-22T22:53:46.116Z,9.56
2022-12-22T22:58:37.168Z,9.65
2022-12-22T23:03:28.792Z,9.54
2022-12-22T23:08:21.898Z,9.60
2022-12-22T23:13:15.345Z,9.63
2022-12-22T23:18:09.197Z,9.59
2022-12-22T23:23:01.150Z,9.63
2022-12-22T23:27:52.657Z,9.63
2022-12-22T23:32:47.143Z,9.63
2022-12-22T23:37:38.014Z,9.54
2022-12-22T23:42:29.163Z,9.47
2022-12-22T23:47:21.260Z,9.63
2022-12-22T23:52:14.482Z,9.60
2022-12-22T23:57:08.064Z,9.58
